createdAt,value
2018-08-03T00:00:09.080Z,84.76
2018-08-03T00:01:09.034Z,84.76
2018-08-03T00:02:08.994Z,85.05
2018-08-03T00:03:08.954Z,84.86
2018-08-03T00:04:08.943Z,85.82
2018-08-03T00:05:08.866Z,86.01
2018-08-03T00:06:08.831Z,86.49
2018-08-03T00:07:08.817Z,86.65
2018-08-03T00:08:08.739Z,86.74
2018-08-03T00:09:08.721Z,86.26
2018-08-03T00:10:08.658Z,85.97
2018-08-03T00:11:08.615Z,86.30
2018-08-03T00:12:08.571Z,86.78
2018-08-03T00:13:08.561Z,86.69
2018-08-03T00:14:08.486Z,86.40
2018-08-03T00:15:08.477Z,86.93
2018-08-03T00:16:08.402Z,86.55
2018-08-03T00:17:08.356Z,87.12
2018-08-03T00:18:08.314Z,87.70
2018-08-03T00:19:08.307Z,87.90
2018-08-03T00:20:08.265Z,87.90
2018-08-03T00:21:08.227Z,88.67
2018-08-03T00:22:08.144Z,87.99
2018-08-03T00:23:08.103Z,87.90
2018-08-03T00:24:08.059Z,87.41
2018-08-03T00:25:08.014Z,87.70
2018-08-03T00:26:08.013Z,87.51
2018-08-03T00:27:07.932Z,87.03
2018-08-03T00:28:07.889Z,87.03
2018-08-03T00:29:07.853Z,87.03
2018-08-03T00:30:07.806Z,87.51
2018-08-03T00:31:07.803Z,88.81
2018-08-03T00:32:07.717Z,88.18
2018-08-03T00:33:07.677Z,88.85
2018-08-03T00:34:07.634Z,88.28
2018-08-03T00:35:07.592Z,87.56
2018-08-03T00:36:07.583Z,87.51
2018-08-03T00:37:07.506Z,87.70
2018-08-03T00:38:07.461Z,88.09
2018-08-03T00:39:07.419Z,87.90
2018-08-03T00:40:07.408Z,88.09
2018-08-03T00:41:07.334Z,88.18
2018-08-03T00:42:07.295Z,88.76
2018-08-03T00:43:07.245Z,88.81
2018-08-03T00:44:07.242Z,89.49
2018-08-03T00:45:07.165Z,89.49
2018-08-03T00:46:07.118Z,89.97
2018-08-03T00:47:07.110Z,89.87
2018-08-03T00:48:07.036Z,89.29
2018-08-03T00:49:06.990Z,89.78
2018-08-03T00:50:06.948Z,90.45
2018-08-03T00:51:06.903Z,89.29
2018-08-03T00:52:06.902Z,89.49
2018-08-03T00:53:06.821Z,89.39
2018-08-03T00:54:06.778Z,89.68
2018-08-03T00:55:06.733Z,89.39
2018-08-03T00:56:06.693Z,89.58
2018-08-03T00:57:06.681Z,89.29
2018-08-03T00:58:06.602Z,88.81
2018-08-03T00:59:06.563Z,88.62
2018-08-03T01:00:06.519Z,88.91
2018-08-03T01:01:06.475Z,88.81
2018-08-03T01:02:06.463Z,89.39
2018-08-03T01:03:06.388Z,90.26
2018-08-03T01:04:06.345Z,90.16
2018-08-03T01:05:06.302Z,90.06
2018-08-03T01:06:06.297Z,89.20
2018-08-03T01:07:06.216Z,89.49
2018-08-03T01:08:06.207Z,90.06
2018-08-03T01:09:06.130Z,90.16
2018-08-03T01:10:06.088Z,90.69
2018-08-03T01:11:06.046Z,91.17
2018-08-03T01:12:06.008Z,90.31
2018-08-03T01:13:05.982Z,90.02
2018-08-03T01:14:05.922Z,90.12
2018-08-03T01:15:05.875Z,90.31
2018-08-03T01:16:05.830Z,90.02
2018-08-03T01:17:05.786Z,90.16
2018-08-03T01:18:05.776Z,89.87
2018-08-03T01:19:05.699Z,89.49
2018-08-03T01:20:05.688Z,89.39
2018-08-03T01:21:05.612Z,90.16
2018-08-03T01:22:05.569Z,89.20
2018-08-03T01:23:05.569Z,89.49
2018-08-03T01:24:05.482Z,89.49
2018-08-03T01:25:05.439Z,89.29
2018-08-03T01:26:05.397Z,89.29
2018-08-03T01:27:05.356Z,90.06
2018-08-03T01:28:05.362Z,89.87
2018-08-03T01:29:05.267Z,90.21
2018-08-03T01:30:05.227Z,90.26
2018-08-03T01:31:05.181Z,90.55
2018-08-03T01:32:05.138Z,90.41
2018-08-03T01:33:05.134Z,90.89
2018-08-03T01:34:05.053Z,90.89
2018-08-03T01:35:05.010Z,90.02
2018-08-03T01:36:04.963Z,89.64
2018-08-03T01:37:04.919Z,90.59
2018-08-03T01:38:04.912Z,90.79
2018-08-03T01:39:04.836Z,90.21
2018-08-03T01:40:04.791Z,91.08
2018-08-03T01:41:04.786Z,90.89
2018-08-03T01:42:04.705Z,91.66
2018-08-03T01:43:04.660Z,91.66
2018-08-03T01:44:04.621Z,92.19
2018-08-03T01:45:04.577Z,91.90
2018-08-03T01:46:04.564Z,91.85
2018-08-03T01:47:04.486Z,91.66
2018-08-03T01:48:04.478Z,92.13
2018-08-03T01:49:04.402Z,91.80
2018-08-03T01:50:04.358Z,91.71
2018-08-03T01:51:04.319Z,91.99
2018-08-03T01:52:04.273Z,92.19
2018-08-03T01:53:04.261Z,92.09
2018-08-03T01:54:04.187Z,91.71
2018-08-03T01:55:04.142Z,92.29
2018-08-03T01:56:04.097Z,91.56
2018-08-03T01:57:04.056Z,91.90
2018-08-03T01:58:04.042Z,91.32
2018-08-03T01:59:04.033Z,91.13
2018-08-03T02:00:03.923Z,91.08
2018-08-03T02:01:03.882Z,90.94
2018-08-03T02:02:03.841Z,91.75
2018-08-03T02:03:03.827Z,92.09
2018-08-03T02:04:03.751Z,92.76
2018-08-03T02:05:03.709Z,92.57
2018-08-03T02:06:03.694Z,92.67
2018-08-03T02:07:03.620Z,93.24
2018-08-03T02:08:03.577Z,92.96
2018-08-03T02:09:03.534Z,93.10
2018-08-03T02:10:03.486Z,92.67
2018-08-03T02:11:03.493Z,92.52
2018-08-03T02:12:03.404Z,93.24
2018-08-03T02:13:03.357Z,92.96
2018-08-03T02:14:03.317Z,92.96
2018-08-03T02:15:03.272Z,93.34
2018-08-03T02:16:03.257Z,92.86
2018-08-03T02:17:03.182Z,93.15
2018-08-03T02:18:03.145Z,92.76
2018-08-03T02:19:03.096Z,93.05
2018-08-03T02:20:03.082Z,93.24
2018-08-03T02:21:03.057Z,92.47
2018-08-03T02:22:02.967Z,93.24
2018-08-03T02:23:02.921Z,92.57
2018-08-03T02:24:02.880Z,92.57
2018-08-03T02:25:02.866Z,92.38
2018-08-03T02:26:02.791Z,92.57
2018-08-03T02:27:02.747Z,93.34
2018-08-03T02:28:02.702Z,93.34
2018-08-03T02:29:02.690Z,92.57
2018-08-03T02:30:02.624Z,92.57
2018-08-03T02:31:02.573Z,93.15
2018-08-03T02:32:02.527Z,92.96
2018-08-03T02:33:02.509Z,93.24
2018-08-03T02:34:02.484Z,92.38
2018-08-03T02:35:02.401Z,92.47
2018-08-03T02:36:02.354Z,92.76
2018-08-03T02:37:02.314Z,92.38
2018-08-03T02:38:02.268Z,91.90
2018-08-03T02:39:02.274Z,92.19
2018-08-03T02:40:02.179Z,91.99
2018-08-03T02:41:02.133Z,92.67
2018-08-03T02:42:02.092Z,92.76
2018-08-03T02:43:02.053Z,93.15
2018-08-03T02:44:02.053Z,93.01
2018-08-03T02:45:01.961Z,92.96
2018-08-03T02:46:01.915Z,93.44
2018-08-03T02:47:01.873Z,93.01
2018-08-03T02:48:01.828Z,92.72
2018-08-03T02:49:01.817Z,92.91
2018-08-03T02:50:01.757Z,92.76
2018-08-03T02:51:01.699Z,92.38
2018-08-03T02:52:01.689Z,92.47
2018-08-03T02:53:01.609Z,92.47
2018-08-03T02:54:01.566Z,91.95
2018-08-03T02:55:01.552Z,92.05
2018-08-03T02:56:01.517Z,91.56
2018-08-03T02:57:01.434Z,91.56
2018-08-03T02:58:01.422Z,91.95
2018-08-03T02:59:01.353Z,92.05
2018-08-03T03:00:01.303Z,92.24
2018-08-03T03:01:01.264Z,92.62
2018-08-03T03:02:01.212Z,92.33
2018-08-03T03:03:01.202Z,92.33
2018-08-03T03:04:01.128Z,92.05
2018-08-03T03:05:01.083Z,92.57
2018-08-03T03:06:01.082Z,92.14
2018-08-03T03:07:00.993Z,92.52
2018-08-03T03:08:00.951Z,92.47
2018-08-03T03:09:00.906Z,92.24
2018-08-03T03:10:00.867Z,92.05
2018-08-03T03:11:00.848Z,92.43
2018-08-03T03:12:00.774Z,92.72
2018-08-03T03:13:00.733Z,92.72
2018-08-03T03:14:00.689Z,92.43
2018-08-03T03:15:00.643Z,92.72
2018-08-03T03:16:00.632Z,92.62
2018-08-03T03:17:00.556Z,93.19
2018-08-03T03:18:00.510Z,92.62
2018-08-03T03:19:00.468Z,92.72
2018-08-03T03:20:00.456Z,93.19
2018-08-03T03:21:00.376Z,92.81
2018-08-03T03:22:00.335Z,92.52
2018-08-03T03:23:00.289Z,92.81
2018-08-03T03:24:00.280Z,93.77
2018-08-03T03:25:00.236Z,93.29
2018-08-03T03:26:00.160Z,93.10
2018-08-03T03:27:00.115Z,93.49
2018-08-03T03:28:00.070Z,93.58
2018-08-03T03:29:00.024Z,93.68
2018-08-03T03:30:00.026Z,93.01
2018-08-03T03:30:59.936Z,93.29
2018-08-03T03:31:59.937Z,93.58
2018-08-03T03:32:59.846Z,93.96
2018-08-03T03:33:59.810Z,93.87
2018-08-03T03:34:59.766Z,93.39
2018-08-03T03:35:59.719Z,93.77
2018-08-03T03:36:59.711Z,94.06
2018-08-03T03:37:59.630Z,93.58
2018-08-03T03:38:59.582Z,93.29
2018-08-03T03:39:59.541Z,93.87
2018-08-03T03:40:59.493Z,93.96
2018-08-03T03:41:59.498Z,94.16
2018-08-03T03:42:59.413Z,93.68
2018-08-03T03:43:59.365Z,93.49
2018-08-03T03:44:59.318Z,93.01
2018-08-03T03:45:59.274Z,93.68
2018-08-03T03:46:59.261Z,93.58
2018-08-03T03:47:59.187Z,94.64
2018-08-03T03:48:59.140Z,95.36
2018-08-03T03:49:59.097Z,95.55
2018-08-03T03:50:59.095Z,95.45
2018-08-03T03:51:59.012Z,95.55
2018-08-03T03:52:58.966Z,95.75
2018-08-03T03:53:58.953Z,95.94
2018-08-03T03:54:58.881Z,96.13
2018-08-03T03:55:58.838Z,96.22
2018-08-03T03:56:58.867Z,96.32
2018-08-03T03:57:58.743Z,96.37
2018-08-03T03:58:58.697Z,95.89
2018-08-03T03:59:58.686Z,96.08
2018-08-03T04:00:58.610Z,96.03
2018-08-03T04:01:58.568Z,95.94
2018-08-03T04:02:58.524Z,95.89
2018-08-03T04:03:58.524Z,96.13
2018-08-03T04:04:58.435Z,95.55
2018-08-03T04:05:58.390Z,95.65
2018-08-03T04:06:58.387Z,95.45
2018-08-03T04:07:58.299Z,95.36
2018-08-03T04:08:58.258Z,95.07
2018-08-03T04:09:58.212Z,94.78
2018-08-03T04:10:58.243Z,94.98
2018-08-03T04:11:58.156Z,95.31
2018-08-03T04:12:58.083Z,94.93
2018-08-03T04:13:58.072Z,94.73
2018-08-03T04:14:57.990Z,94.88
2018-08-03T04:15:57.977Z,94.59
2018-08-03T04:16:57.900Z,95.07
2018-08-03T04:17:57.856Z,95.50
2018-08-03T04:18:57.813Z,95.98
2018-08-03T04:19:57.768Z,95.79
2018-08-03T04:20:57.766Z,96.37
2018-08-03T04:21:57.680Z,97.42
2018-08-03T04:22:57.635Z,97.52
2018-08-03T04:23:57.590Z,97.33
2018-08-03T04:24:57.548Z,97.14
2018-08-03T04:25:57.534Z,97.42
2018-08-03T04:26:57.459Z,97.28
2018-08-03T04:27:57.412Z,97.14
2018-08-03T04:28:57.404Z,97.09
2018-08-03T04:29:57.323Z,97.28
2018-08-03T04:30:57.313Z,97.28
2018-08-03T04:31:57.234Z,96.42
2018-08-03T04:32:57.188Z,96.61
2018-08-03T04:33:57.145Z,96.32
2018-08-03T04:34:57.142Z,96.42
2018-08-03T04:35:57.055Z,96.70
2018-08-03T04:36:57.011Z,96.42
2018-08-03T04:37:57.010Z,95.75
2018-08-03T04:38:56.934Z,95.45
2018-08-03T04:39:56.878Z,95.70
2018-08-03T04:40:56.831Z,95.55
2018-08-03T04:41:56.790Z,95.84
2018-08-03T04:42:56.786Z,95.40
2018-08-03T04:43:56.702Z,94.78
2018-08-03T04:44:56.659Z,94.88
2018-08-03T04:45:56.613Z,94.93
2018-08-03T04:46:56.569Z,95.94
2018-08-03T04:47:56.558Z,96.22
2018-08-03T04:48:56.479Z,96.51
2018-08-03T04:49:56.439Z,96.32
2018-08-03T04:50:56.391Z,96.13
2018-08-03T04:51:56.348Z,95.65
2018-08-03T04:52:56.332Z,95.65
2018-08-03T04:53:56.255Z,95.79
2018-08-03T04:54:56.215Z,95.79
2018-08-03T04:55:56.177Z,95.31
2018-08-03T04:56:56.124Z,95.40
2018-08-03T04:57:56.113Z,95.50
2018-08-03T04:58:56.064Z,95.12
2018-08-03T04:59:56.004Z,95.50
2018-08-03T05:00:55.948Z,95.31
2018-08-03T05:01:55.904Z,95.21
2018-08-03T05:02:55.893Z,94.64
2018-08-03T05:03:55.849Z,94.73
2018-08-03T05:04:55.774Z,95.79
2018-08-03T05:05:55.728Z,95.12
2018-08-03T05:06:55.681Z,94.98
2018-08-03T05:07:55.640Z,94.93
2018-08-03T05:08:55.625Z,95.26
2018-08-03T05:09:55.548Z,94.30
2018-08-03T05:10:55.505Z,94.21
2018-08-03T05:11:55.461Z,94.59
2018-08-03T05:12:55.456Z,94.78
2018-08-03T05:13:55.407Z,94.30
2018-08-03T05:14:55.329Z,94.78
2018-08-03T05:15:55.291Z,94.49
2018-08-03T05:16:55.240Z,94.59
2018-08-03T05:17:55.203Z,94.59
2018-08-03T05:18:55.192Z,94.30
2018-08-03T05:19:55.110Z,94.30
2018-08-03T05:20:55.063Z,93.82
2018-08-03T05:21:55.021Z,94.01
2018-08-03T05:22:55.008Z,94.01
2018-08-03T05:23:54.932Z,93.82
2018-08-03T05:24:54.887Z,93.91
2018-08-03T05:25:54.844Z,93.44
2018-08-03T05:26:54.799Z,94.01
2018-08-03T05:27:54.786Z,93.82
2018-08-03T05:28:54.708Z,94.06
2018-08-03T05:29:54.669Z,93.82
2018-08-03T05:30:54.634Z,94.15
2018-08-03T05:31:54.579Z,94.25
2018-08-03T05:32:54.579Z,94.06
2018-08-03T05:33:54.494Z,94.25
2018-08-03T05:34:54.448Z,94.64
2018-08-03T05:35:54.453Z,94.64
2018-08-03T05:36:54.358Z,94.92
2018-08-03T05:37:54.360Z,94.92
2018-08-03T05:38:54.274Z,95.02
2018-08-03T05:39:54.230Z,95.21
2018-08-03T05:40:54.186Z,95.55
2018-08-03T05:41:54.143Z,95.12
2018-08-03T05:42:54.132Z,94.97
2018-08-03T05:43:54.085Z,95.17
2018-08-03T05:44:54.007Z,95.07
2018-08-03T05:45:53.970Z,94.68
2018-08-03T05:46:53.923Z,94.97
2018-08-03T05:47:53.876Z,94.68
2018-08-03T05:48:53.864Z,94.49
2018-08-03T05:49:53.834Z,94.68
2018-08-03T05:50:53.745Z,94.40
2018-08-03T05:51:53.702Z,94.20
2018-08-03T05:52:53.659Z,94.68
2018-08-03T05:53:53.619Z,94.01
2018-08-03T05:54:53.605Z,93.91
2018-08-03T05:55:53.530Z,93.33
2018-08-03T05:56:53.485Z,94.01
2018-08-03T05:57:53.452Z,93.57
2018-08-03T05:58:53.430Z,93.67
2018-08-03T05:59:53.356Z,93.19
2018-08-03T06:00:53.313Z,93.33
2018-08-03T06:01:53.266Z,93.29
2018-08-03T06:02:53.255Z,93.29
2018-08-03T06:03:53.200Z,93.29
2018-08-03T06:04:53.137Z,93.38
2018-08-03T06:05:53.092Z,93.38
2018-08-03T06:06:53.080Z,92.71
2018-08-03T06:07:53.020Z,92.61
2018-08-03T06:08:52.965Z,93.38
2018-08-03T06:09:52.974Z,93.09
2018-08-03T06:10:52.874Z,92.80
2018-08-03T06:11:52.832Z,93.00
2018-08-03T06:12:52.787Z,92.61
2018-08-03T06:13:52.786Z,93.09
2018-08-03T06:14:52.715Z,92.94
2018-08-03T06:15:52.662Z,92.56
2018-08-03T06:16:52.616Z,92.56
2018-08-03T06:17:52.573Z,92.56
2018-08-03T06:18:52.561Z,91.89
2018-08-03T06:19:52.488Z,92.27
2018-08-03T06:20:52.475Z,91.69
2018-08-03T06:21:52.400Z,91.79
2018-08-03T06:22:52.354Z,91.50
2018-08-03T06:23:52.314Z,92.08
2018-08-03T06:24:52.299Z,91.50
2018-08-03T06:25:52.226Z,91.69
2018-08-03T06:26:52.186Z,90.73
2018-08-03T06:27:52.144Z,91.60
2018-08-03T06:28:52.129Z,91.02
2018-08-03T06:29:52.055Z,91.16
2018-08-03T06:30:52.014Z,91.12
2018-08-03T06:31:51.990Z,91.16
2018-08-03T06:32:51.927Z,90.97
2018-08-03T06:33:51.915Z,91.02
2018-08-03T06:34:51.840Z,91.45
2018-08-03T06:35:51.795Z,91.26
2018-08-03T06:36:51.753Z,90.20
2018-08-03T06:37:51.741Z,90.34
2018-08-03T06:38:51.670Z,90.78
2018-08-03T06:39:51.628Z,90.10
2018-08-03T06:40:51.610Z,90.30
2018-08-03T06:41:51.540Z,89.62
2018-08-03T06:42:51.497Z,89.43
2018-08-03T06:43:51.452Z,89.53
2018-08-03T06:44:51.410Z,89.62
2018-08-03T06:45:51.400Z,89.23
2018-08-03T06:46:51.362Z,89.43
2018-08-03T06:47:51.288Z,89.43
2018-08-03T06:48:51.240Z,89.14
2018-08-03T06:49:51.200Z,89.33
2018-08-03T06:50:51.160Z,89.53
2018-08-03T06:51:51.143Z,89.47
2018-08-03T06:52:51.067Z,89.57
2018-08-03T06:53:51.089Z,89.57
2018-08-03T06:54:50.984Z,89.67
2018-08-03T06:55:50.940Z,88.99
2018-08-03T06:56:50.956Z,88.89
2018-08-03T06:57:50.856Z,89.47
2018-08-03T06:58:50.861Z,89.28
2018-08-03T06:59:50.771Z,88.99
2018-08-03T07:00:50.725Z,88.70
2018-08-03T07:01:50.741Z,88.26
2018-08-03T07:02:50.748Z,88.41
2018-08-03T07:03:50.611Z,88.26
2018-08-03T07:04:50.561Z,88.17
2018-08-03T07:05:50.518Z,88.26
2018-08-03T07:06:50.508Z,88.26
2018-08-03T07:07:50.437Z,87.88
2018-08-03T07:08:50.421Z,87.78
2018-08-03T07:09:50.346Z,87.78
2018-08-03T07:10:50.305Z,87.20
2018-08-03T07:11:50.265Z,86.82
2018-08-03T07:12:50.220Z,86.82
2018-08-03T07:13:50.209Z,86.72
2018-08-03T07:14:50.173Z,86.62
2018-08-03T07:15:50.096Z,86.47
2018-08-03T07:16:50.089Z,86.66
2018-08-03T07:17:50.009Z,86.28
2018-08-03T07:18:50.006Z,86.47
2018-08-03T07:19:50.001Z,86.08
2018-08-03T07:20:49.884Z,86.57
2018-08-03T07:21:49.841Z,85.50
2018-08-03T07:22:49.800Z,85.31
2018-08-03T07:23:49.799Z,85.41
2018-08-03T07:24:49.713Z,84.97
2018-08-03T07:25:49.692Z,84.68
2018-08-03T07:26:49.631Z,85.06
2018-08-03T07:27:49.591Z,85.36
2018-08-03T07:28:49.578Z,84.78
2018-08-03T07:29:49.544Z,84.39
2018-08-03T07:30:49.462Z,84.88
2018-08-03T07:31:49.422Z,84.39
2018-08-03T07:32:49.382Z,84.20
2018-08-03T07:33:49.343Z,84.05
2018-08-03T07:34:49.337Z,84.53
2018-08-03T07:35:49.256Z,84.05
2018-08-03T07:36:49.253Z,83.56
2018-08-03T07:37:49.172Z,83.56
2018-08-03T07:38:49.129Z,83.37
2018-08-03T07:39:49.126Z,83.47
2018-08-03T07:40:49.047Z,83.27
2018-08-03T07:41:49.008Z,83.03
2018-08-03T07:42:48.968Z,82.79
2018-08-03T07:43:48.919Z,82.50
2018-08-03T07:44:48.910Z,82.54
2018-08-03T07:45:48.871Z,82.25
2018-08-03T07:46:48.798Z,82.45
2018-08-03T07:47:48.755Z,81.96
2018-08-03T07:48:48.713Z,82.00
2018-08-03T07:49:48.674Z,81.90
2018-08-03T07:50:48.666Z,81.90
2018-08-03T07:51:48.590Z,81.46
2018-08-03T07:52:48.548Z,81.32
2018-08-03T07:53:48.513Z,81.52
2018-08-03T07:54:48.469Z,81.23
2018-08-03T07:55:48.459Z,81.52
2018-08-03T07:56:48.389Z,81.37
2018-08-03T07:57:48.377Z,80.98
2018-08-03T07:58:48.305Z,80.79
2018-08-03T07:59:48.264Z,80.30
2018-08-03T08:00:48.220Z,79.91
2018-08-03T08:01:48.179Z,79.91
2018-08-03T08:02:48.178Z,79.08
2018-08-03T08:03:48.099Z,79.08
2018-08-03T08:04:48.055Z,78.59
2018-08-03T08:05:48.012Z,78.41
2018-08-03T08:06:47.975Z,78.31
2018-08-03T08:07:47.974Z,78.64
2018-08-03T08:08:47.894Z,78.89
2018-08-03T08:09:47.943Z,77.57
2018-08-03T08:10:47.815Z,78.25
2018-08-03T08:11:47.773Z,77.19
2018-08-03T08:12:47.763Z,77.61
2018-08-03T08:13:47.692Z,77.61
2018-08-03T08:14:47.648Z,77.12
2018-08-03T08:15:47.649Z,76.64
2018-08-03T08:16:47.616Z,76.87
2018-08-03T08:17:47.527Z,76.87
2018-08-03T08:18:47.488Z,76.10
2018-08-03T08:19:47.455Z,75.36
2018-08-03T08:20:47.440Z,75.74
2018-08-03T08:21:47.366Z,74.43
2018-08-03T08:22:47.324Z,74.07
2018-08-03T08:23:47.286Z,72.45
2018-08-03T08:24:47.246Z,71.81
2018-08-03T08:25:47.236Z,71.36
2018-08-03T08:26:47.165Z,70.52
2018-08-03T08:27:47.127Z,69.29
2018-08-03T08:28:47.126Z,69.13
2018-08-03T08:29:47.044Z,67.12
2018-08-03T08:30:47.005Z,66.17
2018-08-03T08:31:46.970Z,65.88
2018-08-03T08:32:46.926Z,64.94
2018-08-03T08:33:46.938Z,64.84
2018-08-03T08:34:46.851Z,64.68
2018-08-03T08:35:46.809Z,63.24
2018-08-03T08:36:46.772Z,62.27
2018-08-03T08:37:46.731Z,62.08
2018-08-03T08:38:46.725Z,62.50
2018-08-03T08:39:46.650Z,61.33
2018-08-03T08:40:46.614Z,61.16
2018-08-03T08:41:46.578Z,60.28
2018-08-03T08:42:46.541Z,58.65
2018-08-03T08:43:46.571Z,58.06
2018-08-03T08:44:46.463Z,58.16
2018-08-03T08:45:46.421Z,56.92
2018-08-03T08:46:46.380Z,56.92
2018-08-03T08:47:46.341Z,56.75
2018-08-03T08:48:46.345Z,56.36
2018-08-03T08:49:46.264Z,56.38
2018-08-03T08:50:46.227Z,56.09
2018-08-03T08:51:46.188Z,55.04
2018-08-03T08:52:46.152Z,54.75
2018-08-03T08:53:46.154Z,53.80
2018-08-03T08:54:46.102Z,53.03
2018-08-03T08:55:46.041Z,52.45
2018-08-03T08:56:45.999Z,52.74
2018-08-03T08:57:45.971Z,52.15
2018-08-03T08:58:45.960Z,51.59
2018-08-03T08:59:45.887Z,51.00
2018-08-03T09:00:45.854Z,51.20
2018-08-03T09:01:45.815Z,51.39
2018-08-03T09:02:45.775Z,51.00
2018-08-03T09:03:45.779Z,51.22
2018-08-03T09:04:45.707Z,51.03
2018-08-03T09:05:45.666Z,51.12
2018-08-03T09:06:45.657Z,50.66
2018-08-03T09:07:45.593Z,50.16
2018-08-03T09:08:45.584Z,49.38
2018-08-03T09:09:45.517Z,49.68
2018-08-03T09:10:45.488Z,49.29
2018-08-03T09:11:45.452Z,48.72
2018-08-03T09:12:45.489Z,48.23
2018-08-03T09:13:45.413Z,47.66
2018-08-03T09:14:45.339Z,47.39
2018-08-03T09:15:45.299Z,46.90
2018-08-03T09:16:45.262Z,46.50
2018-08-03T09:17:45.228Z,45.92
2018-08-03T09:18:45.283Z,45.94
2018-08-03T09:19:45.177Z,45.54
2018-08-03T09:20:45.118Z,45.35
2018-08-03T09:21:45.083Z,45.17
2018-08-03T09:22:45.049Z,45.27
2018-08-03T09:23:45.047Z,44.78
2018-08-03T09:24:45.049Z,44.58
2018-08-03T09:25:44.940Z,44.58
2018-08-03T09:26:44.938Z,44.88
2018-08-03T09:27:44.870Z,44.48
2018-08-03T09:28:44.833Z,45.00
2018-08-03T09:29:44.800Z,44.40
2018-08-03T09:30:44.762Z,43.62
2018-08-03T09:31:44.765Z,44.01
2018-08-03T09:32:44.695Z,44.01
2018-08-03T09:33:44.656Z,44.11
2018-08-03T09:34:44.623Z,43.93
2018-08-03T09:35:44.590Z,42.85
2018-08-03T09:36:44.590Z,42.63
2018-08-03T09:37:44.522Z,43.23
2018-08-03T09:38:44.481Z,43.24
2018-08-03T09:39:44.452Z,42.85
2018-08-03T09:40:44.409Z,42.18
2018-08-03T09:41:44.413Z,41.96
2018-08-03T09:42:44.342Z,42.26
2018-08-03T09:43:44.310Z,42.47
2018-08-03T09:44:44.269Z,41.99
2018-08-03T09:45:44.234Z,41.59
2018-08-03T09:46:44.231Z,41.61
2018-08-03T09:47:44.199Z,40.82
2018-08-03T09:48:44.132Z,41.02
2018-08-03T09:49:44.098Z,41.14
2018-08-03T09:50:44.062Z,41.14
2018-08-03T09:51:44.034Z,41.63
2018-08-03T09:52:44.026Z,41.24
2018-08-03T09:53:44.483Z,40.74
2018-08-03T09:54:43.926Z,40.56
2018-08-03T09:55:43.896Z,39.36
2018-08-03T09:56:43.857Z,39.87
2018-08-03T09:57:43.852Z,38.89
2018-08-03T09:58:43.789Z,38.71
2018-08-03T09:59:43.755Z,38.31
2018-08-03T10:00:43.775Z,38.59
2018-08-03T10:01:43.742Z,38.87
2018-08-03T10:02:43.687Z,39.17
2018-08-03T10:03:43.623Z,38.59
2018-08-03T10:04:43.585Z,38.67
2018-08-03T10:05:43.598Z,39.17
2018-08-03T10:06:43.518Z,39.46
2018-08-03T10:07:43.490Z,38.75
2018-08-03T10:08:43.452Z,39.72
2018-08-03T10:09:43.418Z,39.50
2018-08-03T10:10:43.414Z,39.97
2018-08-03T10:11:43.349Z,40.35
2018-08-03T10:12:43.338Z,41.51
2018-08-03T10:13:43.285Z,41.51
2018-08-03T10:14:43.279Z,41.69
2018-08-03T10:15:43.214Z,42.18
2018-08-03T10:16:43.178Z,41.67
2018-08-03T10:17:43.187Z,41.84
2018-08-03T10:18:43.118Z,42.71
2018-08-03T10:19:43.108Z,43.39
2018-08-03T10:20:43.047Z,43.51
2018-08-03T10:21:43.012Z,42.19
2018-08-03T10:22:42.973Z,42.37
2018-08-03T10:23:42.938Z,43.66
2018-08-03T10:24:42.941Z,43.96
2018-08-03T10:25:42.868Z,43.65
2018-08-03T10:26:42.836Z,44.13
2018-08-03T10:27:43.656Z,43.52
2018-08-03T10:28:42.764Z,44.70
2018-08-03T10:29:42.815Z,45.00
2018-08-03T10:30:42.729Z,45.00
2018-08-03T10:31:42.663Z,45.00
2018-08-03T10:32:42.625Z,45.09
2018-08-03T10:33:42.592Z,45.29
2018-08-03T10:34:42.557Z,45.19
2018-08-03T10:35:42.552Z,45.39
2018-08-03T10:36:42.486Z,45.19
2018-08-03T10:37:42.450Z,45.00
2018-08-03T10:38:42.418Z,44.62
2018-08-03T10:39:42.382Z,44.43
2018-08-03T10:40:42.380Z,44.04
2018-08-03T10:41:42.321Z,43.96
2018-08-03T10:42:42.287Z,44.43
2018-08-03T10:43:42.242Z,43.86
2018-08-03T10:44:42.211Z,43.86
2018-08-03T10:45:42.209Z,43.57
2018-08-03T10:46:42.135Z,43.66
2018-08-03T10:47:42.104Z,43.57
2018-08-03T10:48:42.084Z,43.66
2018-08-03T10:49:42.032Z,42.47
2018-08-03T10:50:42.027Z,42.45
2018-08-03T10:51:41.961Z,43.92
2018-08-03T10:52:41.928Z,44.02
2018-08-03T10:53:41.926Z,43.38
2018-08-03T10:54:41.852Z,43.68
2018-08-03T10:55:41.854Z,44.05
2018-08-03T10:56:41.784Z,44.15
2018-08-03T10:57:41.748Z,44.62
2018-08-03T10:58:41.745Z,44.89
2018-08-03T10:59:41.679Z,45.37
2018-08-03T11:00:41.688Z,46.16
2018-08-03T11:01:41.679Z,46.16
2018-08-03T11:02:41.572Z,45.47
2018-08-03T11:03:41.535Z,46.36
2018-08-03T11:04:41.537Z,45.18
2018-08-03T11:05:41.461Z,45.16
2018-08-03T11:06:41.474Z,45.65
2018-08-03T11:07:41.425Z,45.57
2018-08-03T11:08:41.360Z,46.06
2018-08-03T11:09:41.324Z,45.37
2018-08-03T11:10:41.317Z,44.98
2018-08-03T11:11:41.247Z,44.49
2018-08-03T11:12:41.214Z,45.08
2018-08-03T11:13:41.237Z,44.48
2018-08-03T11:14:41.139Z,44.89
2018-08-03T11:15:41.189Z,45.08
2018-08-03T11:16:41.070Z,45.50
2018-08-03T11:17:41.037Z,44.15
2018-08-03T11:18:40.999Z,44.05
2018-08-03T11:19:40.960Z,43.77
2018-08-03T11:20:40.966Z,43.27
2018-08-03T11:21:40.891Z,43.56
2018-08-03T11:22:40.853Z,44.15
2018-08-03T11:23:40.820Z,44.46
2018-08-03T11:24:40.784Z,44.37
2018-08-03T11:25:40.782Z,43.70
2018-08-03T11:26:40.713Z,43.92
2018-08-03T11:27:40.680Z,43.65
2018-08-03T11:28:40.636Z,43.00
2018-08-03T11:29:40.618Z,42.11
2018-08-03T11:30:40.597Z,41.33
2018-08-03T11:31:40.533Z,41.16
2018-08-03T11:32:40.502Z,40.86
2018-08-03T11:33:40.492Z,41.16
2018-08-03T11:34:40.426Z,40.86
2018-08-03T11:35:40.420Z,40.61
2018-08-03T11:36:40.354Z,39.94
2018-08-03T11:37:40.319Z,39.13
2018-08-03T11:38:40.284Z,38.56
2018-08-03T11:39:40.246Z,38.44
2018-08-03T11:40:40.288Z,38.64
2018-08-03T11:41:40.176Z,38.84
2018-08-03T11:42:40.154Z,39.23
2018-08-03T11:43:40.105Z,39.42
2018-08-03T11:44:40.068Z,39.23
2018-08-03T11:45:40.083Z,38.92
2018-08-03T11:46:40.042Z,38.72
2018-08-03T11:47:39.965Z,38.90
2018-08-03T11:48:39.929Z,39.88
2018-08-03T11:49:39.894Z,39.86
2018-08-03T11:50:39.860Z,40.47
2018-08-03T11:51:39.860Z,41.24
2018-08-03T11:52:39.792Z,41.24
2018-08-03T11:53:39.757Z,41.43
2018-08-03T11:54:39.720Z,41.03
2018-08-03T11:55:39.689Z,41.63
2018-08-03T11:56:39.698Z,41.25
2018-08-03T11:57:39.612Z,40.98
2018-08-03T11:58:39.576Z,39.92
2018-08-03T11:59:39.544Z,38.85
2018-08-03T12:00:39.509Z,38.66
2018-08-03T12:01:39.504Z,38.28
2018-08-03T12:02:39.436Z,36.30
2018-08-03T12:03:39.405Z,36.28
2018-08-03T12:04:39.372Z,37.76
2018-08-03T12:05:39.369Z,38.15
2018-08-03T12:06:39.473Z,37.67
2018-08-03T12:07:39.262Z,35.90
2018-08-03T12:08:39.228Z,36.28
2018-08-03T12:09:39.193Z,35.99
2018-08-03T12:10:39.194Z,36.00
2018-08-03T12:11:39.126Z,35.51
2018-08-03T12:12:39.093Z,35.63
2018-08-03T12:13:39.057Z,35.05
2018-08-03T12:14:39.021Z,34.95
2018-08-03T12:15:39.030Z,34.95
2018-08-03T12:16:38.954Z,35.23
2018-08-03T12:17:38.923Z,35.25
2018-08-03T12:18:38.883Z,34.75
2018-08-03T12:19:38.850Z,34.77
2018-08-03T12:20:38.848Z,34.56
2018-08-03T12:21:38.784Z,35.05
2018-08-03T12:22:38.777Z,35.03
2018-08-03T12:23:38.735Z,34.94
2018-08-03T12:24:38.685Z,35.13
2018-08-03T12:25:38.647Z,34.64
2018-08-03T12:26:38.612Z,34.74
2018-08-03T12:27:38.608Z,35.05
2018-08-03T12:28:38.541Z,35.23
2018-08-03T12:29:38.538Z,35.76
2018-08-03T12:30:38.529Z,35.28
2018-08-03T12:31:38.522Z,34.81
2018-08-03T12:32:38.408Z,34.23
2018-08-03T12:33:38.406Z,34.44
2018-08-03T12:34:38.385Z,33.77
2018-08-03T12:35:38.307Z,32.90
2018-08-03T12:36:38.273Z,32.32
2018-08-03T12:37:38.237Z,32.24
2018-08-03T12:38:38.248Z,32.04
2018-08-03T12:39:38.175Z,31.74
2018-08-03T12:40:38.182Z,31.84
2018-08-03T12:41:38.171Z,31.84
2018-08-03T12:42:38.141Z,32.03
2018-08-03T12:43:38.036Z,32.21
2018-08-03T12:44:38.006Z,32.09
2018-08-03T12:45:38.008Z,32.28
2018-08-03T12:46:37.935Z,33.16
2018-08-03T12:47:37.904Z,32.75
2018-08-03T12:48:37.873Z,32.95
2018-08-03T12:49:37.836Z,33.34
2018-08-03T12:50:37.908Z,33.42
2018-08-03T12:51:37.827Z,34.49